CDT,Max TemperatureF,Mean TemperatureF,Min TemperatureF,Max Dew PointF,MeanDew PointF,Min DewpointF,Max Humidity, Mean Humidity, Min Humidity, Max Sea Level PressureIn, Mean Sea Level PressureIn, Min Sea Level PressureIn, Max VisibilityMiles, Mean VisibilityMiles, Min VisibilityMiles, Max Wind SpeedMPH, Mean Wind SpeedMPH, Max Gust SpeedMPH,PrecipitationIn, CloudCover, Events, WindDirDegrees
2011-9-1,70,65,60,64,60,55,100,83,66,30.02,29.76,29.58,10,10,4,23,12,31,0.01,5,Rain-Thunderstorm,327
2011-9-2,76,62,47,61,54,46,100,72,43,30.02,29.95,29.84,10,9,2,21,7,29,0.03,1,Rain,221
2011-9-3,70,61,51,52,44,40,77,57,36,30.22,30.08,29.95,10,10,10,31,16,38,0.00,3,,302
2011-9-4,70,56,42,48,43,39,89,63,36,30.32,30.25,30.17,10,10,10,13,4,18,0.00,0,,287
2011-9-5,80,63,45,55,48,40,86,61,36,30.17,30.01,29.90,10,10,10,22,11,26,0.00,0,,153
2011-9-6,83,66,48,60,54,48,100,70,39,30.12,30.01,29.94,10,10,10,12,2,14,0.00,0,,121
2011-9-7,85,66,47,63,54,46,100,66,32,30.32,30.23,30.13,10,8,0,10,3,13,0.00,0,Fog,81
2011-9-8,82,67,51,61,55,52,100,68,36,30.36,30.30,30.23,10,10,5,10,4,13,0.00,0,,87
2011-9-9,82,66,49,59,54,49,100,67,33,30.24,30.20,30.14,10,10,7,9,3,12,0.00,0,,92
2011-9-10,86,67,47,59,52,47,100,64,27,30.17,30.10,30.01,10,10,6,12,3,17,0.00,0,,247
2011-9-11,87,69,50,60,54,50,96,63,29,30.01,29.93,29.79,10,10,8,13,4,17,0.00,0,,114
2011-9-12,68,56,43,55,48,42,100,76,52,30.13,29.95,29.73,10,10,6,31,9,39,0.00,3,,326
2011-9-13,70,55,39,45,39,28,96,64,31,30.32,30.17,30.12,10,10,10,24,10,30,0.00,1,,313
2011-9-14,57,45,32,32,28,22,82,54,26,30.50,30.43,30.34,10,10,10,15,6,20,0.00,0,,355
2011-9-15,60,45,29,40,32,26,89,61,33,30.43,30.29,30.15,10,10,10,25,14,33,0.00,2,,140
2011-9-16,52,48,44,45,42,39,89,80,71,30.13,30.04,29.98,10,10,10,25,17,31,0.00,8,,157
2011-9-17,56,53,50,55,52,45,100,89,77,29.98,29.90,29.86,10,5,2,18,9,23,0.05,8,Rain,165
2011-9-18,74,58,41,54,44,34,100,62,23,30.04,29.95,29.90,10,6,0,22,7,28,0.01,0,Fog-Rain,271
2011-9-19,81,59,36,54,43,36,92,59,26,30.05,29.88,29.72,10,10,2,24,8,28,0.05,2,Rain,237
2011-9-20,56,53,49,55,48,45,96,87,77,30.06,29.77,29.52,10,8,2,35,20,46,0.81,7,Rain,306
2011-9-21,55,46,37,45,39,36,92,73,54,30.25,30.19,30.05,10,10,10,21,11,28,0.00,3,,340
2011-9-22,63,46,29,41,34,28,100,68,36,30.25,30.19,30.11,10,7,0,13,4,16,0.00,1,Fog,207
2011-9-23,79,60,40,58,44,36,89,63,36,30.10,29.98,29.89,10,10,10,12,3,14,0.00,0,,150
2011-9-24,80,62,43,56,49,43,100,68,35,29.95,29.91,29.87,10,10,10,8,4,12,0.00,0,,115
2011-9-25,78,62,45,50,44,41,86,59,31,29.90,29.86,29.82,10,10,10,21,9,24,0.00,0,,134
2011-9-26,75,59,43,49,43,39,83,56,29,29.96,29.93,29.90,10,10,10,22,8,25,0.00,0,,149
2011-9-27,83,62,40,55,45,39,100,63,25,30.03,29.94,29.85,10,10,10,8,3,10,0.00,0,,188
2011-9-28,82,63,44,50,43,36,93,57,21,30.06,29.90,29.82,10,10,8,24,9,32,0.00,0,,324
2011-9-29,65,51,36,41,38,36,82,60,37,30.36,30.27,30.08,10,10,10,24,11,32,0.00,0,,327
2011-9-30,67,49,31,44,37,30,100,71,42,30.35,30.24,30.06,10,8,0,24,10,30,0.00,1,Fog,107